sensor_id;sensor_type;location;lat;lon;timestamp;P1;durP1;ratioP1;P2;durP2;ratioP2
1402;SDS011;696;48.546;9.896;2022-12-18T00:01:24;44.35;;;21.63;;
1402;SDS011;696;48.546;9.896;2022-12-18T00:03:51;54.33;;;22.70;;
1402;SDS011;696;48.546;9.896;2022-12-18T00:06:17;54.00;;;23.60;;
1402;SDS011;696;48.546;9.896;2022-12-18T00:08:44;47.83;;;22.17;;
1402;SDS011;696;48.546;9.896;2022-12-18T00:11:11;50.42;;;22.15;;
1402;SDS011;696;48.546;9.896;2022-12-18T00:13:37;45.92;;;22.63;;
1402;SDS011;696;48.546;9.896;2022-12-18T00:16:03;47.53;;;20.52;;
1402;SDS011;696;48.546;9.896;2022-12-18T00:18:30;48.78;;;22.52;;
1402;SDS011;696;48.546;9.896;2022-12-18T00:20:58;51.58;;;22.25;;
1402;SDS011;696;48.546;9.896;2022-12-18T00:23:24;48.75;;;22.20;;
1402;SDS011;696;48.546;9.896;2022-12-18T00:25:50;51.35;;;23.42;;
1402;SDS011;696;48.546;9.896;2022-12-18T00:28:15;56.30;;;21.85;;
1402;SDS011;696;48.546;9.896;2022-12-18T00:30:40;49.45;;;21.90;;
1402;SDS011;696;48.546;9.896;2022-12-18T00:33:06;58.35;;;22.77;;
1402;SDS011;696;48.546;9.896;2022-12-18T00:35:31;61.72;;;23.23;;
1402;SDS011;696;48.546;9.896;2022-12-18T00:37:57;52.22;;;22.55;;
1402;SDS011;696;48.546;9.896;2022-12-18T00:40:22;54.72;;;23.70;;
1402;SDS011;696;48.546;9.896;2022-12-18T00:42:47;57.00;;;25.52;;
1402;SDS011;696;48.546;9.896;2022-12-18T00:45:30;42.80;;;21.20;;
1402;SDS011;696;48.546;9.896;2022-12-18T00:47:56;65.68;;;26.73;;
1402;SDS011;696;48.546;9.896;2022-12-18T00:50:22;54.15;;;23.17;;
1402;SDS011;696;48.546;9.896;2022-12-18T00:52:48;50.45;;;22.00;;
1402;SDS011;696;48.546;9.896;2022-12-18T00:55:14;54.97;;;23.17;;
1402;SDS011;696;48.546;9.896;2022-12-18T00:57:39;53.08;;;23.52;;
1402;SDS011;696;48.546;9.896;2022-12-18T01:00:05;43.47;;;21.52;;
1402;SDS011;696;48.546;9.896;2022-12-18T01:02:32;60.55;;;22.25;;
1402;SDS011;696;48.546;9.896;2022-12-18T01:04:57;53.50;;;22.70;;
1402;SDS011;696;48.546;9.896;2022-12-18T01:07:23;50.03;;;23.05;;
1402;SDS011;696;48.546;9.896;2022-12-18T01:09:48;59.80;;;23.85;;
1402;SDS011;696;48.546;9.896;2022-12-18T01:12:14;47.78;;;22.27;;
1402;SDS011;696;48.546;9.896;2022-12-18T01:14:39;72.60;;;25.70;;
1402;SDS011;696;48.546;9.896;2022-12-18T01:17:04;62.03;;;23.17;;
1402;SDS011;696;48.546;9.896;2022-12-18T01:19:30;55.10;;;23.88;;
1402;SDS011;696;48.546;9.896;2022-12-18T01:21:55;54.13;;;23.90;;
1402;SDS011;696;48.546;9.896;2022-12-18T01:24:21;51.60;;;22.90;;
1402;SDS011;696;48.546;9.896;2022-12-18T01:26:46;64.63;;;25.00;;
1402;SDS011;696;48.546;9.896;2022-12-18T01:29:11;59.22;;;25.17;;
1402;SDS011;696;48.546;9.896;2022-12-18T01:31:37;59.83;;;23.05;;
1402;SDS011;696;48.546;9.896;2022-12-18T01:34:03;58.83;;;24.85;;
1402;SDS011;696;48.546;9.896;2022-12-18T01:36:31;54.97;;;23.70;;
1402;SDS011;696;48.546;9.896;2022-12-18T01:39:02;55.97;;;24.65;;
1402;SDS011;696;48.546;9.896;2022-12-18T01:41:29;54.53;;;22.77;;
1402;SDS011;696;48.546;9.896;2022-12-18T01:47:18;46.50;;;23.20;;
1402;SDS011;696;48.546;9.896;2022-12-18T01:49:50;55.63;;;22.23;;
1402;SDS011;696;48.546;9.896;2022-12-18T01:52:16;64.53;;;22.90;;
1402;SDS011;696;48.546;9.896;2022-12-18T01:54:43;65.05;;;24.73;;
1402;SDS011;696;48.546;9.896;2022-12-18T01:57:08;57.08;;;22.45;;
1402;SDS011;696;48.546;9.896;2022-12-18T01:59:34;60.88;;;24.33;;
1402;SDS011;696;48.546;9.896;2022-12-18T02:02:00;49.90;;;23.23;;
1402;SDS011;696;48.546;9.896;2022-12-18T02:04:26;67.43;;;26.05;;
1402;SDS011;696;48.546;9.896;2022-12-18T02:06:59;64.30;;;24.80;;
1402;SDS011;696;48.546;9.896;2022-12-18T02:09:44;53.25;;;24.50;;
1402;SDS011;696;48.546;9.896;2022-12-18T02:14:49;52.47;;;22.65;;
1402;SDS011;696;48.546;9.896;2022-12-18T02:17:28;58.17;;;24.70;;
1402;SDS011;696;48.546;9.896;2022-12-18T02:28:08;57.67;;;25.15;;
1402;SDS011;696;48.546;9.896;2022-12-18T02:30:37;55.03;;;24.50;;
1402;SDS011;696;48.546;9.896;2022-12-18T02:33:04;61.55;;;23.23;;
1402;SDS011;696;48.546;9.896;2022-12-18T02:35:29;55.05;;;24.65;;
1402;SDS011;696;48.546;9.896;2022-12-18T02:37:55;55.20;;;23.67;;
1402;SDS011;696;48.546;9.896;2022-12-18T02:40:22;57.47;;;24.77;;
1402;SDS011;696;48.546;9.896;2022-12-18T02:42:50;61.83;;;24.80;;
1402;SDS011;696;48.546;9.896;2022-12-18T02:45:15;58.70;;;23.80;;
1402;SDS011;696;48.546;9.896;2022-12-18T02:47:42;63.35;;;26.17;;
1402;SDS011;696;48.546;9.896;2022-12-18T02:50:13;63.83;;;24.00;;
1402;SDS011;696;48.546;9.896;2022-12-18T02:53:03;64.05;;;24.85;;
1402;SDS011;696;48.546;9.896;2022-12-18T03:04:01;56.40;;;25.02;;
1402;SDS011;696;48.546;9.896;2022-12-18T03:06:32;64.60;;;25.08;;
1402;SDS011;696;48.546;9.896;2022-12-18T03:09:21;64.47;;;25.15;;
1402;SDS011;696;48.546;9.896;2022-12-18T03:12:00;57.80;;;24.80;;
1402;SDS011;696;48.546;9.896;2022-12-18T03:14:49;69.13;;;25.25;;
1402;SDS011;696;48.546;9.896;2022-12-18T03:17:19;66.75;;;25.65;;
1402;SDS011;696;48.546;9.896;2022-12-18T03:19:45;69.07;;;28.55;;
1402;SDS011;696;48.546;9.896;2022-12-18T03:22:11;71.43;;;27.67;;
1402;SDS011;696;48.546;9.896;2022-12-18T03:24:37;65.75;;;26.63;;
1402;SDS011;696;48.546;9.896;2022-12-18T03:27:05;57.17;;;27.13;;
1402;SDS011;696;48.546;9.896;2022-12-18T03:29:38;73.13;;;28.55;;
1402;SDS011;696;48.546;9.896;2022-12-18T03:32:07;72.13;;;28.05;;
1402;SDS011;696;48.546;9.896;2022-12-18T03:34:38;72.57;;;27.02;;
1402;SDS011;696;48.546;9.896;2022-12-18T03:37:06;69.35;;;28.67;;
1402;SDS011;696;48.546;9.896;2022-12-18T03:39:32;75.35;;;28.23;;
1402;SDS011;696;48.546;9.896;2022-12-18T03:42:06;61.85;;;28.75;;
1402;SDS011;696;48.546;9.896;2022-12-18T03:44:37;71.85;;;29.38;;
1402;SDS011;696;48.546;9.896;2022-12-18T03:49:39;75.68;;;29.35;;
1402;SDS011;696;48.546;9.896;2022-12-18T03:55:01;90.78;;;29.38;;
1402;SDS011;696;48.546;9.896;2022-12-18T03:57:29;78.35;;;30.65;;
1402;SDS011;696;48.546;9.896;2022-12-18T03:59:58;79.28;;;29.73;;
1402;SDS011;696;48.546;9.896;2022-12-18T04:02:25;72.88;;;28.45;;
1402;SDS011;696;48.546;9.896;2022-12-18T04:04:55;74.72;;;29.58;;
1402;SDS011;696;48.546;9.896;2022-12-18T04:07:22;86.95;;;31.63;;
1402;SDS011;696;48.546;9.896;2022-12-18T04:09:48;76.18;;;29.10;;
1402;SDS011;696;48.546;9.896;2022-12-18T04:12:15;73.72;;;29.08;;
1402;SDS011;696;48.546;9.896;2022-12-18T04:14:40;89.78;;;30.50;;
1402;SDS011;696;48.546;9.896;2022-12-18T04:17:06;71.82;;;29.00;;
1402;SDS011;696;48.546;9.896;2022-12-18T04:19:31;82.18;;;30.80;;
1402;SDS011;696;48.546;9.896;2022-12-18T04:21:56;71.88;;;30.42;;
1402;SDS011;696;48.546;9.896;2022-12-18T04:24:22;71.90;;;29.52;;
1402;SDS011;696;48.546;9.896;2022-12-18T04:26:48;71.60;;;28.67;;
1402;SDS011;696;48.546;9.896;2022-12-18T04:29:13;86.97;;;30.90;;
1402;SDS011;696;48.546;9.896;2022-12-18T04:31:39;78.35;;;29.45;;
1402;SDS011;696;48.546;9.896;2022-12-18T04:34:04;85.03;;;30.70;;
1402;SDS011;696;48.546;9.896;2022-12-18T04:36:30;71.32;;;27.20;;
1402;SDS011;696;48.546;9.896;2022-12-18T04:38:55;68.38;;;28.27;;
1402;SDS011;696;48.546;9.896;2022-12-18T04:41:21;63.20;;;27.10;;
1402;SDS011;696;48.546;9.896;2022-12-18T04:43:46;78.00;;;28.73;;
1402;SDS011;696;48.546;9.896;2022-12-18T04:46:12;70.88;;;27.85;;
1402;SDS011;696;48.546;9.896;2022-12-18T04:48:37;78.53;;;29.17;;
1402;SDS011;696;48.546;9.896;2022-12-18T04:51:03;65.20;;;28.13;;
1402;SDS011;696;48.546;9.896;2022-12-18T04:53:29;62.40;;;27.58;;
1402;SDS011;696;48.546;9.896;2022-12-18T04:58:28;73.28;;;30.17;;
1402;SDS011;696;48.546;9.896;2022-12-18T05:00:54;79.22;;;28.30;;
1402;SDS011;696;48.546;9.896;2022-12-18T05:03:19;90.43;;;29.65;;
1402;SDS011;696;48.546;9.896;2022-12-18T05:05:44;76.93;;;30.25;;
1402;SDS011;696;48.546;9.896;2022-12-18T05:08:10;75.68;;;31.95;;
1402;SDS011;696;48.546;9.896;2022-12-18T05:10:35;69.53;;;31.75;;
1402;SDS011;696;48.546;9.896;2022-12-18T05:13:00;90.38;;;32.63;;
1402;SDS011;696;48.546;9.896;2022-12-18T05:15:29;87.47;;;32.65;;
1402;SDS011;696;48.546;9.896;2022-12-18T05:17:56;74.88;;;31.52;;
1402;SDS011;696;48.546;9.896;2022-12-18T05:20:22;79.15;;;32.58;;
1402;SDS011;696;48.546;9.896;2022-12-18T05:22:47;89.05;;;36.47;;
1402;SDS011;696;48.546;9.896;2022-12-18T05:25:13;91.50;;;34.85;;
1402;SDS011;696;48.546;9.896;2022-12-18T05:27:38;91.05;;;34.08;;
1402;SDS011;696;48.546;9.896;2022-12-18T05:30:03;100.53;;;35.60;;
1402;SDS011;696;48.546;9.896;2022-12-18T05:32:29;100.30;;;35.00;;
1402;SDS011;696;48.546;9.896;2022-12-18T05:34:54;94.78;;;36.08;;
1402;SDS011;696;48.546;9.896;2022-12-18T05:37:22;88.05;;;36.58;;
1402;SDS011;696;48.546;9.896;2022-12-18T05:39:47;91.43;;;34.47;;
1402;SDS011;696;48.546;9.896;2022-12-18T05:42:13;90.50;;;34.72;;
1402;SDS011;696;48.546;9.896;2022-12-18T05:44:38;111.30;;;37.20;;
1402;SDS011;696;48.546;9.896;2022-12-18T05:47:03;96.07;;;36.35;;
1402;SDS011;696;48.546;9.896;2022-12-18T05:49:29;92.82;;;35.70;;
1402;SDS011;696;48.546;9.896;2022-12-18T05:51:55;92.43;;;37.28;;
1402;SDS011;696;48.546;9.896;2022-12-18T05:54:20;100.40;;;36.20;;
1402;SDS011;696;48.546;9.896;2022-12-18T05:56:46;96.35;;;38.03;;
1402;SDS011;696;48.546;9.896;2022-12-18T05:59:12;105.47;;;39.08;;
1402;SDS011;696;48.546;9.896;2022-12-18T06:01:37;103.05;;;37.90;;
1402;SDS011;696;48.546;9.896;2022-12-18T06:04:02;87.40;;;35.65;;
1402;SDS011;696;48.546;9.896;2022-12-18T06:06:28;97.25;;;35.88;;
1402;SDS011;696;48.546;9.896;2022-12-18T06:08:54;91.72;;;37.67;;
1402;SDS011;696;48.546;9.896;2022-12-18T06:11:23;104.15;;;39.40;;
1402;SDS011;696;48.546;9.896;2022-12-18T06:13:50;105.68;;;39.00;;
1402;SDS011;696;48.546;9.896;2022-12-18T06:16:17;116.03;;;39.38;;
1402;SDS011;696;48.546;9.896;2022-12-18T06:18:42;103.18;;;37.25;;
1402;SDS011;696;48.546;9.896;2022-12-18T06:21:07;107.50;;;38.83;;
1402;SDS011;696;48.546;9.896;2022-12-18T06:23:33;95.47;;;38.00;;
1402;SDS011;696;48.546;9.896;2022-12-18T06:25:58;109.13;;;36.53;;
1402;SDS011;696;48.546;9.896;2022-12-18T06:28:24;111.53;;;36.38;;
1402;SDS011;696;48.546;9.896;2022-12-18T06:30:49;123.85;;;40.60;;
1402;SDS011;696;48.546;9.896;2022-12-18T06:33:16;116.90;;;41.22;;
1402;SDS011;696;48.546;9.896;2022-12-18T06:35:41;91.93;;;37.42;;
1402;SDS011;696;48.546;9.896;2022-12-18T06:38:07;111.60;;;40.28;;
1402;SDS011;696;48.546;9.896;2022-12-18T06:40:33;114.95;;;38.35;;
1402;SDS011;696;48.546;9.896;2022-12-18T06:42:58;136.77;;;42.55;;
1402;SDS011;696;48.546;9.896;2022-12-18T06:45:23;99.13;;;39.67;;
1402;SDS011;696;48.546;9.896;2022-12-18T06:47:49;101.20;;;39.67;;
1402;SDS011;696;48.546;9.896;2022-12-18T06:50:14;116.28;;;41.28;;
1402;SDS011;696;48.546;9.896;2022-12-18T06:52:40;110.13;;;39.50;;
1402;SDS011;696;48.546;9.896;2022-12-18T06:55:06;105.10;;;38.67;;
1402;SDS011;696;48.546;9.896;2022-12-18T06:57:32;101.10;;;39.85;;
1402;SDS011;696;48.546;9.896;2022-12-18T06:59:58;92.97;;;37.03;;
1402;SDS011;696;48.546;9.896;2022-12-18T07:02:23;92.28;;;36.00;;
1402;SDS011;696;48.546;9.896;2022-12-18T07:04:49;105.63;;;37.13;;
1402;SDS011;696;48.546;9.896;2022-12-18T07:07:14;119.75;;;38.83;;
1402;SDS011;696;48.546;9.896;2022-12-18T07:09:39;97.93;;;39.42;;
1402;SDS011;696;48.546;9.896;2022-12-18T07:12:04;113.35;;;37.78;;
1402;SDS011;696;48.546;9.896;2022-12-18T07:14:31;96.88;;;36.95;;
1402;SDS011;696;48.546;9.896;2022-12-18T07:16:57;100.32;;;37.05;;
1402;SDS011;696;48.546;9.896;2022-12-18T07:19:22;95.15;;;37.85;;
1402;SDS011;696;48.546;9.896;2022-12-18T07:21:47;134.00;;;45.25;;
1402;SDS011;696;48.546;9.896;2022-12-18T07:24:14;124.30;;;41.13;;
1402;SDS011;696;48.546;9.896;2022-12-18T07:26:40;109.90;;;37.75;;
1402;SDS011;696;48.546;9.896;2022-12-18T07:29:05;106.68;;;38.78;;
1402;SDS011;696;48.546;9.896;2022-12-18T07:31:30;110.40;;;38.35;;
1402;SDS011;696;48.546;9.896;2022-12-18T07:33:56;111.40;;;41.33;;
1402;SDS011;696;48.546;9.896;2022-12-18T07:36:21;105.55;;;37.60;;
1402;SDS011;696;48.546;9.896;2022-12-18T07:38:47;115.68;;;40.70;;
1402;SDS011;696;48.546;9.896;2022-12-18T07:41:13;98.47;;;37.92;;
1402;SDS011;696;48.546;9.896;2022-12-18T07:43:39;106.72;;;37.08;;
1402;SDS011;696;48.546;9.896;2022-12-18T07:46:05;105.95;;;38.55;;
1402;SDS011;696;48.546;9.896;2022-12-18T07:48:31;117.13;;;38.80;;
1402;SDS011;696;48.546;9.896;2022-12-18T07:51:00;103.25;;;37.20;;
1402;SDS011;696;48.546;9.896;2022-12-18T07:53:29;114.38;;;39.03;;
1402;SDS011;696;48.546;9.896;2022-12-18T07:55:55;99.70;;;35.83;;
1402;SDS011;696;48.546;9.896;2022-12-18T07:58:24;122.05;;;40.03;;
1402;SDS011;696;48.546;9.896;2022-12-18T08:00:49;95.95;;;34.08;;
1402;SDS011;696;48.546;9.896;2022-12-18T08:03:15;107.18;;;35.28;;
1402;SDS011;696;48.546;9.896;2022-12-18T08:05:40;93.57;;;35.65;;
1402;SDS011;696;48.546;9.896;2022-12-18T08:08:05;98.78;;;34.92;;
1402;SDS011;696;48.546;9.896;2022-12-18T08:10:31;81.05;;;32.08;;
1402;SDS011;696;48.546;9.896;2022-12-18T08:12:56;109.03;;;36.08;;
1402;SDS011;696;48.546;9.896;2022-12-18T08:15:21;80.45;;;32.72;;
1402;SDS011;696;48.546;9.896;2022-12-18T08:17:47;96.55;;;35.40;;
1402;SDS011;696;48.546;9.896;2022-12-18T08:20:12;92.90;;;32.88;;
1402;SDS011;696;48.546;9.896;2022-12-18T08:22:39;89.05;;;33.38;;
1402;SDS011;696;48.546;9.896;2022-12-18T08:25:06;94.25;;;31.50;;
1402;SDS011;696;48.546;9.896;2022-12-18T08:27:31;92.13;;;34.00;;
1402;SDS011;696;48.546;9.896;2022-12-18T08:29:57;82.25;;;33.38;;
1402;SDS011;696;48.546;9.896;2022-12-18T08:32:22;82.35;;;31.40;;
1402;SDS011;696;48.546;9.896;2022-12-18T08:34:48;70.57;;;30.58;;
1402;SDS011;696;48.546;9.896;2022-12-18T08:37:14;82.07;;;32.40;;
1402;SDS011;696;48.546;9.896;2022-12-18T08:39:39;85.13;;;31.70;;
1402;SDS011;696;48.546;9.896;2022-12-18T08:42:04;70.93;;;28.85;;
1402;SDS011;696;48.546;9.896;2022-12-18T08:44:48;70.75;;;27.63;;
1402;SDS011;696;48.546;9.896;2022-12-18T08:47:14;74.35;;;27.67;;
1402;SDS011;696;48.546;9.896;2022-12-18T08:49:39;57.38;;;25.25;;
1402;SDS011;696;48.546;9.896;2022-12-18T08:52:05;67.47;;;27.80;;
1402;SDS011;696;48.546;9.896;2022-12-18T08:54:30;67.57;;;28.52;;
1402;SDS011;696;48.546;9.896;2022-12-18T08:56:56;69.45;;;28.13;;
1402;SDS011;696;48.546;9.896;2022-12-18T08:59:21;68.70;;;28.60;;
1402;SDS011;696;48.546;9.896;2022-12-18T09:01:48;77.25;;;31.92;;
1402;SDS011;696;48.546;9.896;2022-12-18T09:04:13;72.35;;;27.88;;
1402;SDS011;696;48.546;9.896;2022-12-18T09:06:39;75.38;;;30.10;;
1402;SDS011;696;48.546;9.896;2022-12-18T09:09:05;69.22;;;26.48;;
1402;SDS011;696;48.546;9.896;2022-12-18T09:11:31;58.72;;;25.67;;
1402;SDS011;696;48.546;9.896;2022-12-18T09:13:57;70.30;;;26.67;;
1402;SDS011;696;48.546;9.896;2022-12-18T09:16:24;52.88;;;23.05;;
1402;SDS011;696;48.546;9.896;2022-12-18T09:18:50;67.20;;;27.17;;
1402;SDS011;696;48.546;9.896;2022-12-18T09:21:19;64.38;;;25.30;;
1402;SDS011;696;48.546;9.896;2022-12-18T09:23:52;69.57;;;25.75;;
1402;SDS011;696;48.546;9.896;2022-12-18T09:26:18;65.60;;;26.10;;
1402;SDS011;696;48.546;9.896;2022-12-18T09:28:44;57.40;;;26.17;;
1402;SDS011;696;48.546;9.896;2022-12-18T09:31:10;64.38;;;26.58;;
1402;SDS011;696;48.546;9.896;2022-12-18T09:33:36;68.20;;;26.25;;
1402;SDS011;696;48.546;9.896;2022-12-18T09:36:02;61.17;;;25.80;;
1402;SDS011;696;48.546;9.896;2022-12-18T09:38:29;60.33;;;24.98;;
1402;SDS011;696;48.546;9.896;2022-12-18T09:40:56;66.25;;;26.90;;
1402;SDS011;696;48.546;9.896;2022-12-18T09:43:31;71.13;;;26.65;;
1402;SDS011;696;48.546;9.896;2022-12-18T09:45:58;73.78;;;27.73;;
1402;SDS011;696;48.546;9.896;2022-12-18T09:48:40;58.35;;;25.23;;
1402;SDS011;696;48.546;9.896;2022-12-18T09:51:24;70.72;;;27.15;;
1402;SDS011;696;48.546;9.896;2022-12-18T09:53:52;68.78;;;25.02;;
1402;SDS011;696;48.546;9.896;2022-12-18T09:56:21;57.05;;;25.05;;
1402;SDS011;696;48.546;9.896;2022-12-18T10:01:18;62.35;;;25.45;;
1402;SDS011;696;48.546;9.896;2022-12-18T10:03:46;53.30;;;24.83;;
1402;SDS011;696;48.546;9.896;2022-12-18T10:09:07;56.75;;;23.40;;
1402;SDS011;696;48.546;9.896;2022-12-18T10:27:47;55.80;;;22.30;;
1402;SDS011;696;48.546;9.896;2022-12-18T10:30:15;58.78;;;24.00;;
1402;SDS011;696;48.546;9.896;2022-12-18T10:32:43;58.50;;;23.00;;
1402;SDS011;696;48.546;9.896;2022-12-18T10:35:19;56.10;;;23.30;;
1402;SDS011;696;48.546;9.896;2022-12-18T10:40:31;55.35;;;24.30;;
1402;SDS011;696;48.546;9.896;2022-12-18T10:43:04;56.47;;;24.05;;
1402;SDS011;696;48.546;9.896;2022-12-18T10:45:35;57.17;;;24.15;;
1402;SDS011;696;48.546;9.896;2022-12-18T10:48:00;57.40;;;24.95;;
1402;SDS011;696;48.546;9.896;2022-12-18T10:50:31;56.35;;;24.20;;
1402;SDS011;696;48.546;9.896;2022-12-18T10:52:59;54.90;;;24.73;;
1402;SDS011;696;48.546;9.896;2022-12-18T10:55:31;53.78;;;23.48;;
1402;SDS011;696;48.546;9.896;2022-12-18T10:58:15;56.38;;;22.40;;
1402;SDS011;696;48.546;9.896;2022-12-18T11:03:34;62.60;;;25.25;;
1402;SDS011;696;48.546;9.896;2022-12-18T11:06:08;50.90;;;22.83;;
1402;SDS011;696;48.546;9.896;2022-12-18T11:08:34;56.08;;;23.65;;
1402;SDS011;696;48.546;9.896;2022-12-18T11:11:00;62.10;;;23.35;;
1402;SDS011;696;48.546;9.896;2022-12-18T11:13:26;58.72;;;24.50;;
1402;SDS011;696;48.546;9.896;2022-12-18T11:15:53;53.72;;;24.10;;
1402;SDS011;696;48.546;9.896;2022-12-18T11:18:25;57.50;;;22.77;;
1402;SDS011;696;48.546;9.896;2022-12-18T11:21:07;51.78;;;22.92;;
1402;SDS011;696;48.546;9.896;2022-12-18T11:23:35;64.18;;;24.08;;
1402;SDS011;696;48.546;9.896;2022-12-18T11:26:15;53.42;;;23.92;;
1402;SDS011;696;48.546;9.896;2022-12-18T11:28:44;55.75;;;24.58;;
1402;SDS011;696;48.546;9.896;2022-12-18T11:36:43;64.78;;;27.00;;
1402;SDS011;696;48.546;9.896;2022-12-18T11:44:46;61.88;;;25.50;;
1402;SDS011;696;48.546;9.896;2022-12-18T11:50:17;58.33;;;23.50;;
1402;SDS011;696;48.546;9.896;2022-12-18T11:52:44;56.67;;;24.80;;
1402;SDS011;696;48.546;9.896;2022-12-18T11:55:19;51.65;;;23.45;;
1402;SDS011;696;48.546;9.896;2022-12-18T11:58:03;64.70;;;23.58;;
1402;SDS011;696;48.546;9.896;2022-12-18T12:00:55;67.93;;;26.42;;
1402;SDS011;696;48.546;9.896;2022-12-18T12:11:53;49.72;;;22.65;;
1402;SDS011;696;48.546;9.896;2022-12-18T12:17:10;61.85;;;24.90;;
1402;SDS011;696;48.546;9.896;2022-12-18T12:24:57;54.50;;;24.08;;
1402;SDS011;696;48.546;9.896;2022-12-18T12:27:46;55.15;;;24.73;;
1402;SDS011;696;48.546;9.896;2022-12-18T12:38:30;47.03;;;22.48;;
1402;SDS011;696;48.546;9.896;2022-12-18T12:41:04;52.78;;;22.23;;
1402;SDS011;696;48.546;9.896;2022-12-18T12:46:11;54.83;;;22.33;;
1402;SDS011;696;48.546;9.896;2022-12-18T12:51:25;47.40;;;22.45;;
1402;SDS011;696;48.546;9.896;2022-12-18T12:53:53;53.85;;;24.50;;
1402;SDS011;696;48.546;9.896;2022-12-18T12:56:20;51.10;;;22.45;;
1402;SDS011;696;48.546;9.896;2022-12-18T12:58:49;49.78;;;21.75;;
1402;SDS011;696;48.546;9.896;2022-12-18T13:01:25;45.63;;;22.08;;
1402;SDS011;696;48.546;9.896;2022-12-18T13:06:40;55.78;;;21.92;;
1402;SDS011;696;48.546;9.896;2022-12-18T13:09:09;52.80;;;22.92;;
1402;SDS011;696;48.546;9.896;2022-12-18T13:11:36;54.28;;;23.95;;
1402;SDS011;696;48.546;9.896;2022-12-18T13:14:29;58.75;;;23.70;;
1402;SDS011;696;48.546;9.896;2022-12-18T13:19:48;65.25;;;23.27;;
1402;SDS011;696;48.546;9.896;2022-12-18T13:22:24;53.92;;;23.20;;
1402;SDS011;696;48.546;9.896;2022-12-18T13:24:53;44.88;;;21.42;;
1402;SDS011;696;48.546;9.896;2022-12-18T13:35:42;46.75;;;20.05;;
1402;SDS011;696;48.546;9.896;2022-12-18T13:40:56;56.22;;;22.85;;
1402;SDS011;696;48.546;9.896;2022-12-18T13:43:26;49.55;;;22.73;;
1402;SDS011;696;48.546;9.896;2022-12-18T13:48:27;52.33;;;20.55;;
1402;SDS011;696;48.546;9.896;2022-12-18T13:50:57;52.90;;;22.70;;
1402;SDS011;696;48.546;9.896;2022-12-18T13:53:26;46.97;;;21.95;;
1402;SDS011;696;48.546;9.896;2022-12-18T13:55:53;57.05;;;23.50;;
1402;SDS011;696;48.546;9.896;2022-12-18T13:58:19;48.65;;;22.08;;
1402;SDS011;696;48.546;9.896;2022-12-18T14:00:44;51.53;;;22.17;;
1402;SDS011;696;48.546;9.896;2022-12-18T14:03:23;48.03;;;21.75;;
1402;SDS011;696;48.546;9.896;2022-12-18T14:06:12;55.83;;;22.25;;
1402;SDS011;696;48.546;9.896;2022-12-18T14:08:38;45.53;;;21.90;;
1402;SDS011;696;48.546;9.896;2022-12-18T14:11:05;53.78;;;20.92;;
1402;SDS011;696;48.546;9.896;2022-12-18T14:13:39;43.42;;;19.65;;
1402;SDS011;696;48.546;9.896;2022-12-18T14:16:06;47.55;;;20.83;;
1402;SDS011;696;48.546;9.896;2022-12-18T14:24:28;46.63;;;19.45;;
1402;SDS011;696;48.546;9.896;2022-12-18T14:26:56;36.55;;;18.42;;
1402;SDS011;696;48.546;9.896;2022-12-18T14:29:38;38.20;;;18.40;;
1402;SDS011;696;48.546;9.896;2022-12-18T14:32:15;43.42;;;20.30;;
1402;SDS011;696;48.546;9.896;2022-12-18T14:34:52;44.45;;;19.88;;
1402;SDS011;696;48.546;9.896;2022-12-18T14:37:22;40.08;;;20.08;;
1402;SDS011;696;48.546;9.896;2022-12-18T14:39:59;44.08;;;19.67;;
1402;SDS011;696;48.546;9.896;2022-12-18T14:42:27;42.60;;;20.00;;
1402;SDS011;696;48.546;9.896;2022-12-18T14:47:56;49.47;;;21.00;;
1402;SDS011;696;48.546;9.896;2022-12-18T14:50:21;47.08;;;22.13;;
1402;SDS011;696;48.546;9.896;2022-12-18T14:52:47;45.20;;;19.98;;
1402;SDS011;696;48.546;9.896;2022-12-18T14:55:19;47.83;;;19.25;;
1402;SDS011;696;48.546;9.896;2022-12-18T15:00:21;42.20;;;20.48;;
1402;SDS011;696;48.546;9.896;2022-12-18T15:02:55;53.75;;;20.35;;
1402;SDS011;696;48.546;9.896;2022-12-18T15:05:25;62.17;;;22.58;;
1402;SDS011;696;48.546;9.896;2022-12-18T15:07:56;66.90;;;22.50;;
1402;SDS011;696;48.546;9.896;2022-12-18T15:10:27;49.30;;;20.48;;
1402;SDS011;696;48.546;9.896;2022-12-18T15:23:17;43.63;;;20.05;;
1402;SDS011;696;48.546;9.896;2022-12-18T15:26:07;51.95;;;20.83;;
1402;SDS011;696;48.546;9.896;2022-12-18T15:28:37;56.03;;;21.33;;
1402;SDS011;696;48.546;9.896;2022-12-18T15:31:06;52.35;;;21.90;;
1402;SDS011;696;48.546;9.896;2022-12-18T15:33:45;49.08;;;21.40;;
1402;SDS011;696;48.546;9.896;2022-12-18T15:36:28;52.15;;;22.17;;
1402;SDS011;696;48.546;9.896;2022-12-18T15:39:01;66.15;;;24.75;;
1402;SDS011;696;48.546;9.896;2022-12-18T15:41:30;50.90;;;23.65;;
1402;SDS011;696;48.546;9.896;2022-12-18T15:43:58;59.60;;;22.70;;
1402;SDS011;696;48.546;9.896;2022-12-18T15:46:24;56.90;;;24.85;;
1402;SDS011;696;48.546;9.896;2022-12-18T15:48:55;54.13;;;23.42;;
1402;SDS011;696;48.546;9.896;2022-12-18T15:51:26;65.10;;;25.67;;
1402;SDS011;696;48.546;9.896;2022-12-18T15:53:58;57.97;;;24.73;;
1402;SDS011;696;48.546;9.896;2022-12-18T15:56:24;61.72;;;25.70;;
1402;SDS011;696;48.546;9.896;2022-12-18T15:59:13;66.22;;;26.67;;
1402;SDS011;696;48.546;9.896;2022-12-18T16:01:40;73.47;;;27.15;;
1402;SDS011;696;48.546;9.896;2022-12-18T16:04:15;59.78;;;26.20;;
1402;SDS011;696;48.546;9.896;2022-12-18T16:06:42;64.60;;;28.15;;
1402;SDS011;696;48.546;9.896;2022-12-18T16:09:08;62.13;;;24.38;;
1402;SDS011;696;48.546;9.896;2022-12-18T16:11:35;51.67;;;22.83;;
1402;SDS011;696;48.546;9.896;2022-12-18T16:16:47;58.28;;;22.55;;
1402;SDS011;696;48.546;9.896;2022-12-18T16:19:14;56.30;;;22.88;;
1402;SDS011;696;48.546;9.896;2022-12-18T16:21:40;59.53;;;23.67;;
1402;SDS011;696;48.546;9.896;2022-12-18T16:24:13;52.38;;;21.67;;
1402;SDS011;696;48.546;9.896;2022-12-18T16:26:43;52.50;;;23.38;;
1402;SDS011;696;48.546;9.896;2022-12-18T16:29:11;51.65;;;22.85;;
1402;SDS011;696;48.546;9.896;2022-12-18T16:31:37;47.90;;;22.38;;
1402;SDS011;696;48.546;9.896;2022-12-18T16:34:13;52.78;;;23.30;;
1402;SDS011;696;48.546;9.896;2022-12-18T16:36:43;58.13;;;24.58;;
1402;SDS011;696;48.546;9.896;2022-12-18T16:39:08;52.65;;;23.35;;
1402;SDS011;696;48.546;9.896;2022-12-18T16:41:37;50.72;;;23.90;;
1402;SDS011;696;48.546;9.896;2022-12-18T16:44:04;52.47;;;25.00;;
1402;SDS011;696;48.546;9.896;2022-12-18T16:46:30;64.38;;;24.75;;
1402;SDS011;696;48.546;9.896;2022-12-18T16:48:59;55.13;;;24.88;;
1402;SDS011;696;48.546;9.896;2022-12-18T16:51:25;58.58;;;24.50;;
1402;SDS011;696;48.546;9.896;2022-12-18T16:53:54;53.22;;;23.27;;
1402;SDS011;696;48.546;9.896;2022-12-18T16:56:20;57.50;;;23.90;;
1402;SDS011;696;48.546;9.896;2022-12-18T16:58:55;58.30;;;24.15;;
1402;SDS011;696;48.546;9.896;2022-12-18T17:01:22;60.28;;;24.35;;
1402;SDS011;696;48.546;9.896;2022-12-18T17:03:55;55.00;;;24.13;;
1402;SDS011;696;48.546;9.896;2022-12-18T17:06:22;53.35;;;22.38;;
1402;SDS011;696;48.546;9.896;2022-12-18T17:08:53;49.90;;;22.27;;
1402;SDS011;696;48.546;9.896;2022-12-18T17:11:20;50.20;;;22.25;;
1402;SDS011;696;48.546;9.896;2022-12-18T17:13:46;51.03;;;24.50;;
1402;SDS011;696;48.546;9.896;2022-12-18T17:16:11;64.40;;;24.60;;
1402;SDS011;696;48.546;9.896;2022-12-18T17:18:37;55.08;;;24.70;;
1402;SDS011;696;48.546;9.896;2022-12-18T17:21:03;51.22;;;24.63;;
1402;SDS011;696;48.546;9.896;2022-12-18T17:23:31;47.55;;;22.23;;
1402;SDS011;696;48.546;9.896;2022-12-18T17:25:57;55.80;;;24.02;;
1402;SDS011;696;48.546;9.896;2022-12-18T17:28:24;54.47;;;24.30;;
1402;SDS011;696;48.546;9.896;2022-12-18T17:30:50;59.85;;;24.63;;
1402;SDS011;696;48.546;9.896;2022-12-18T17:33:22;53.08;;;22.35;;